sensor_id;sensor_type;location;lat;lon;timestamp;temperature;humidity
22153;DHT22;11242;50.536;12.688;2023-07-31T00:00:13;12.90;99.90
22153;DHT22;11242;50.536;12.688;2023-07-31T00:02:39;13.00;99.90
22153;DHT22;11242;50.536;12.688;2023-07-31T00:05:05;13.10;99.90
22153;DHT22;11242;50.536;12.688;2023-07-31T00:07:32;13.20;99.90
22153;DHT22;11242;50.536;12.688;2023-07-31T00:09:58;13.40;99.90
22153;DHT22;11242;50.536;12.688;2023-07-31T00:12:23;13.50;99.90
22153;DHT22;11242;50.536;12.688;2023-07-31T00:14:49;13.50;99.90
22153;DHT22;11242;50.536;12.688;2023-07-31T00:17:16;13.50;99.90
22153;DHT22;11242;50.536;12.688;2023-07-31T00:19:42;13.50;99.90
22153;DHT22;11242;50.536;12.688;2023-07-31T00:22:07;13.50;99.90
22153;DHT22;11242;50.536;12.688;2023-07-31T00:24:33;13.50;99.90
22153;DHT22;11242;50.536;12.688;2023-07-31T00:26:58;13.50;99.90
22153;DHT22;11242;50.536;12.688;2023-07-31T00:29:26;13.40;99.90
22153;DHT22;11242;50.536;12.688;2023-07-31T00:31:51;13.40;99.90
22153;DHT22;11242;50.536;12.688;2023-07-31T00:34:17;13.40;99.90
22153;DHT22;11242;50.536;12.688;2023-07-31T00:36:43;13.50;99.90
22153;DHT22;11242;50.536;12.688;2023-07-31T00:39:08;13.60;99.90
22153;DHT22;11242;50.536;12.688;2023-07-31T00:41:34;13.60;99.90
22153;DHT22;11242;50.536;12.688;2023-07-31T00:44:00;13.70;99.90
22153;DHT22;11242;50.536;12.688;2023-07-31T00:46:26;13.80;99.90
22153;DHT22;11242;50.536;12.688;2023-07-31T00:48:52;13.80;99.90
22153;DHT22;11242;50.536;12.688;2023-07-31T00:51:18;14.00;99.90
22153;DHT22;11242;50.536;12.688;2023-07-31T00:53:43;14.00;99.90
22153;DHT22;11242;50.536;12.688;2023-07-31T00:56:11;14.10;99.90
22153;DHT22;11242;50.536;12.688;2023-07-31T00:58:38;14.20;99.90
22153;DHT22;11242;50.536;12.688;2023-07-31T01:01:03;14.20;99.90
22153;DHT22;11242;50.536;12.688;2023-07-31T01:03:29;14.10;99.90
22153;DHT22;11242;50.536;12.688;2023-07-31T01:06:26;14.10;99.90
22153;DHT22;11242;50.536;12.688;2023-07-31T01:09:00;14.20;99.90
22153;DHT22;11242;50.536;12.688;2023-07-31T01:11:30;14.20;99.90
22153;DHT22;11242;50.536;12.688;2023-07-31T01:13:57;14.20;99.90
22153;DHT22;11242;50.536;12.688;2023-07-31T01:16:22;14.30;99.90
22153;DHT22;11242;50.536;12.688;2023-07-31T01:18:48;14.30;99.90
22153;DHT22;11242;50.536;12.688;2023-07-31T01:26:39;14.30;99.90
22153;DHT22;11242;50.536;12.688;2023-07-31T01:32:02;14.50;99.90
22153;DHT22;11242;50.536;12.688;2023-07-31T01:34:29;14.50;99.90
22153;DHT22;11242;50.536;12.688;2023-07-31T01:36:56;14.50;99.90
22153;DHT22;11242;50.536;12.688;2023-07-31T01:39:23;14.50;99.90
22153;DHT22;11242;50.536;12.688;2023-07-31T01:41:49;14.50;99.90
22153;DHT22;11242;50.536;12.688;2023-07-31T01:44:15;14.50;99.90
22153;DHT22;11242;50.536;12.688;2023-07-31T01:46:40;14.50;99.90
22153;DHT22;11242;50.536;12.688;2023-07-31T01:49:06;14.50;99.90
22153;DHT22;11242;50.536;12.688;2023-07-31T01:51:32;14.60;99.90
22153;DHT22;11242;50.536;12.688;2023-07-31T01:54:01;14.60;99.90
22153;DHT22;11242;50.536;12.688;2023-07-31T01:56:27;14.60;99.90
22153;DHT22;11242;50.536;12.688;2023-07-31T01:58:52;14.60;99.90
22153;DHT22;11242;50.536;12.688;2023-07-31T02:01:18;14.50;99.90
22153;DHT22;11242;50.536;12.688;2023-07-31T02:03:44;14.60;99.90
22153;DHT22;11242;50.536;12.688;2023-07-31T02:06:10;14.50;99.90
22153;DHT22;11242;50.536;12.688;2023-07-31T02:08:36;14.50;99.90
22153;DHT22;11242;50.536;12.688;2023-07-31T02:11:01;14.40;99.90
22153;DHT22;11242;50.536;12.688;2023-07-31T02:13:27;14.40;99.90
22153;DHT22;11242;50.536;12.688;2023-07-31T02:15:53;14.30;99.90
22153;DHT22;11242;50.536;12.688;2023-07-31T02:18:19;14.20;99.90
22153;DHT22;11242;50.536;12.688;2023-07-31T02:20:49;14.20;99.90
22153;DHT22;11242;50.536;12.688;2023-07-31T02:23:15;14.10;99.90
22153;DHT22;11242;50.536;12.688;2023-07-31T02:25:40;14.10;99.90
22153;DHT22;11242;50.536;12.688;2023-07-31T02:28:06;14.00;99.90
22153;DHT22;11242;50.536;12.688;2023-07-31T02:30:32;14.00;99.90
22153;DHT22;11242;50.536;12.688;2023-07-31T02:32:57;13.90;99.90
22153;DHT22;11242;50.536;12.688;2023-07-31T02:35:23;13.90;99.90
22153;DHT22;11242;50.536;12.688;2023-07-31T02:37:48;13.80;99.90
22153;DHT22;11242;50.536;12.688;2023-07-31T02:40:14;13.80;99.90
22153;DHT22;11242;50.536;12.688;2023-07-31T02:42:40;13.80;99.90
22153;DHT22;11242;50.536;12.688;2023-07-31T02:45:06;13.80;99.90
22153;DHT22;11242;50.536;12.688;2023-07-31T02:47:32;13.80;99.90
22153;DHT22;11242;50.536;12.688;2023-07-31T02:49:57;13.70;99.90
22153;DHT22;11242;50.536;12.688;2023-07-31T02:52:23;13.70;99.90
22153;DHT22;11242;50.536;12.688;2023-07-31T02:54:48;13.70;99.90
22153;DHT22;11242;50.536;12.688;2023-07-31T02:57:14;13.60;99.90
22153;DHT22;11242;50.536;12.688;2023-07-31T02:59:40;13.60;99.90
22153;DHT22;11242;50.536;12.688;2023-07-31T03:02:05;13.60;99.90
22153;DHT22;11242;50.536;12.688;2023-07-31T03:04:31;13.50;99.90
22153;DHT22;11242;50.536;12.688;2023-07-31T03:06:56;13.50;99.90
22153;DHT22;11242;50.536;12.688;2023-07-31T03:09:22;13.40;99.90
22153;DHT22;11242;50.536;12.688;2023-07-31T03:11:48;13.40;99.90
22153;DHT22;11242;50.536;12.688;2023-07-31T03:14:14;13.30;99.90
22153;DHT22;11242;50.536;12.688;2023-07-31T03:16:39;13.40;99.90
22153;DHT22;11242;50.536;12.688;2023-07-31T03:19:05;13.40;99.90
22153;DHT22;11242;50.536;12.688;2023-07-31T03:21:30;13.40;99.90
22153;DHT22;11242;50.536;12.688;2023-07-31T03:23:56;13.40;99.90
22153;DHT22;11242;50.536;12.688;2023-07-31T03:26:22;13.40;99.90
22153;DHT22;11242;50.536;12.688;2023-07-31T03:28:47;13.40;99.90
22153;DHT22;11242;50.536;12.688;2023-07-31T03:31:14;13.40;99.90
22153;DHT22;11242;50.536;12.688;2023-07-31T03:33:40;13.50;99.90
22153;DHT22;11242;50.536;12.688;2023-07-31T03:36:06;13.50;99.90
22153;DHT22;11242;50.536;12.688;2023-07-31T03:38:31;13.60;99.90
22153;DHT22;11242;50.536;12.688;2023-07-31T03:40:57;13.60;99.90
22153;DHT22;11242;50.536;12.688;2023-07-31T03:43:24;13.60;99.90
22153;DHT22;11242;50.536;12.688;2023-07-31T03:45:50;13.70;99.90
22153;DHT22;11242;50.536;12.688;2023-07-31T03:48:16;13.70;99.90
22153;DHT22;11242;50.536;12.688;2023-07-31T03:50:42;13.70;99.90
22153;DHT22;11242;50.536;12.688;2023-07-31T03:53:07;13.80;99.90
22153;DHT22;11242;50.536;12.688;2023-07-31T03:55:33;13.80;99.90
22153;DHT22;11242;50.536;12.688;2023-07-31T03:57:58;13.80;99.90
22153;DHT22;11242;50.536;12.688;2023-07-31T04:00:26;13.80;99.90
22153;DHT22;11242;50.536;12.688;2023-07-31T04:02:52;13.80;99.90
22153;DHT22;11242;50.536;12.688;2023-07-31T04:05:18;13.90;99.90
22153;DHT22;11242;50.536;12.688;2023-07-31T04:07:43;13.90;99.90
22153;DHT22;11242;50.536;12.688;2023-07-31T04:10:09;13.80;99.90
22153;DHT22;11242;50.536;12.688;2023-07-31T04:12:35;13.90;99.90
22153;DHT22;11242;50.536;12.688;2023-07-31T04:15:01;13.80;99.90
22153;DHT22;11242;50.536;12.688;2023-07-31T04:17:26;13.90;99.90
22153;DHT22;11242;50.536;12.688;2023-07-31T04:19:52;13.90;99.90
22153;DHT22;11242;50.536;12.688;2023-07-31T04:22:17;13.90;99.90
22153;DHT22;11242;50.536;12.688;2023-07-31T04:24:43;13.90;99.90
22153;DHT22;11242;50.536;12.688;2023-07-31T04:27:09;13.90;99.90
22153;DHT22;11242;50.536;12.688;2023-07-31T04:29:34;13.90;99.90
22153;DHT22;11242;50.536;12.688;2023-07-31T04:32:00;13.90;99.90
22153;DHT22;11242;50.536;12.688;2023-07-31T04:34:25;14.00;99.90
22153;DHT22;11242;50.536;12.688;2023-07-31T04:36:51;14.00;99.90
22153;DHT22;11242;50.536;12.688;2023-07-31T04:39:17;14.10;99.90
22153;DHT22;11242;50.536;12.688;2023-07-31T04:41:42;14.10;99.90
22153;DHT22;11242;50.536;12.688;2023-07-31T04:44:08;14.20;99.90
22153;DHT22;11242;50.536;12.688;2023-07-31T04:46:33;14.10;99.90
22153;DHT22;11242;50.536;12.688;2023-07-31T04:48:59;14.10;99.90
22153;DHT22;11242;50.536;12.688;2023-07-31T04:51:24;14.10;99.90
22153;DHT22;11242;50.536;12.688;2023-07-31T04:53:50;14.20;99.90
22153;DHT22;11242;50.536;12.688;2023-07-31T04:56:16;14.20;99.90
22153;DHT22;11242;50.536;12.688;2023-07-31T04:58:41;14.20;99.90
22153;DHT22;11242;50.536;12.688;2023-07-31T05:01:07;14.20;99.90
22153;DHT22;11242;50.536;12.688;2023-07-31T05:03:33;14.20;99.90
22153;DHT22;11242;50.536;12.688;2023-07-31T05:05:58;14.30;99.90
22153;DHT22;11242;50.536;12.688;2023-07-31T05:08:24;14.30;99.90
22153;DHT22;11242;50.536;12.688;2023-07-31T05:10:50;14.30;99.90
22153;DHT22;11242;50.536;12.688;2023-07-31T05:13:15;14.40;99.90
22153;DHT22;11242;50.536;12.688;2023-07-31T05:15:41;14.50;99.90
22153;DHT22;11242;50.536;12.688;2023-07-31T05:18:07;14.60;99.90
22153;DHT22;11242;50.536;12.688;2023-07-31T05:20:32;14.60;99.90
22153;DHT22;11242;50.536;12.688;2023-07-31T05:22:58;14.60;99.90
22153;DHT22;11242;50.536;12.688;2023-07-31T05:25:24;14.70;99.90
22153;DHT22;11242;50.536;12.688;2023-07-31T05:27:49;14.60;99.90
22153;DHT22;11242;50.536;12.688;2023-07-31T05:30:15;14.60;99.90
22153;DHT22;11242;50.536;12.688;2023-07-31T05:32:40;14.60;99.90
22153;DHT22;11242;50.536;12.688;2023-07-31T05:35:06;14.60;99.90
22153;DHT22;11242;50.536;12.688;2023-07-31T05:37:32;14.60;99.90
22153;DHT22;11242;50.536;12.688;2023-07-31T05:39:58;14.60;99.90
22153;DHT22;11242;50.536;12.688;2023-07-31T05:42:23;14.60;99.90
22153;DHT22;11242;50.536;12.688;2023-07-31T05:44:49;14.70;99.90
22153;DHT22;11242;50.536;12.688;2023-07-31T05:47:15;14.70;99.90
22153;DHT22;11242;50.536;12.688;2023-07-31T05:49:40;14.80;99.90
22153;DHT22;11242;50.536;12.688;2023-07-31T05:52:06;14.80;99.90
22153;DHT22;11242;50.536;12.688;2023-07-31T05:54:32;14.90;99.90
22153;DHT22;11242;50.536;12.688;2023-07-31T05:56:58;14.90;99.90
22153;DHT22;11242;50.536;12.688;2023-07-31T05:59:24;14.90;99.90
22153;DHT22;11242;50.536;12.688;2023-07-31T06:01:49;15.00;99.90
22153;DHT22;11242;50.536;12.688;2023-07-31T06:04:15;14.90;99.90
22153;DHT22;11242;50.536;12.688;2023-07-31T06:06:40;14.90;99.90
22153;DHT22;11242;50.536;12.688;2023-07-31T06:09:06;14.90;99.90
22153;DHT22;11242;50.536;12.688;2023-07-31T06:11:32;14.90;99.90
22153;DHT22;11242;50.536;12.688;2023-07-31T06:13:58;14.80;99.90
22153;DHT22;11242;50.536;12.688;2023-07-31T06:16:25;14.80;99.90
22153;DHT22;11242;50.536;12.688;2023-07-31T06:18:51;14.80;99.90
22153;DHT22;11242;50.536;12.688;2023-07-31T06:21:17;14.80;99.90
22153;DHT22;11242;50.536;12.688;2023-07-31T06:23:42;14.90;99.90
22153;DHT22;11242;50.536;12.688;2023-07-31T06:26:08;14.90;99.90
22153;DHT22;11242;50.536;12.688;2023-07-31T06:28:35;14.90;99.90
22153;DHT22;11242;50.536;12.688;2023-07-31T06:31:01;14.90;99.90
22153;DHT22;11242;50.536;12.688;2023-07-31T06:33:27;14.90;99.90
22153;DHT22;11242;50.536;12.688;2023-07-31T06:35:53;14.90;99.90
22153;DHT22;11242;50.536;12.688;2023-07-31T06:38:23;15.00;99.90
22153;DHT22;11242;50.536;12.688;2023-07-31T06:40:49;15.10;99.90
22153;DHT22;11242;50.536;12.688;2023-07-31T06:43:15;15.10;99.90
22153;DHT22;11242;50.536;12.688;2023-07-31T06:45:41;15.20;99.90
22153;DHT22;11242;50.536;12.688;2023-07-31T06:48:06;15.20;99.90
22153;DHT22;11242;50.536;12.688;2023-07-31T06:50:32;15.20;99.90
22153;DHT22;11242;50.536;12.688;2023-07-31T06:52:58;15.30;99.90
22153;DHT22;11242;50.536;12.688;2023-07-31T06:55:24;15.30;99.90
22153;DHT22;11242;50.536;12.688;2023-07-31T06:57:51;15.40;99.90
22153;DHT22;11242;50.536;12.688;2023-07-31T07:00:18;15.40;99.90
22153;DHT22;11242;50.536;12.688;2023-07-31T07:02:45;15.60;99.90
22153;DHT22;11242;50.536;12.688;2023-07-31T07:05:13;15.60;99.90
22153;DHT22;11242;50.536;12.688;2023-07-31T07:07:39;15.70;99.90
22153;DHT22;11242;50.536;12.688;2023-07-31T07:10:05;15.90;99.90
22153;DHT22;11242;50.536;12.688;2023-07-31T07:12:31;16.10;99.90
22153;DHT22;11242;50.536;12.688;2023-07-31T07:14:57;16.00;99.90
22153;DHT22;11242;50.536;12.688;2023-07-31T07:17:23;16.00;99.90
22153;DHT22;11242;50.536;12.688;2023-07-31T07:19:49;16.00;99.90
22153;DHT22;11242;50.536;12.688;2023-07-31T07:22:15;16.00;99.90
22153;DHT22;11242;50.536;12.688;2023-07-31T07:24:41;15.90;99.90
22153;DHT22;11242;50.536;12.688;2023-07-31T07:27:06;16.00;99.90
22153;DHT22;11242;50.536;12.688;2023-07-31T07:29:34;15.90;99.90
22153;DHT22;11242;50.536;12.688;2023-07-31T07:31:59;15.90;99.90
22153;DHT22;11242;50.536;12.688;2023-07-31T07:34:28;16.10;99.90
22153;DHT22;11242;50.536;12.688;2023-07-31T07:36:54;16.20;99.90
22153;DHT22;11242;50.536;12.688;2023-07-31T07:39:20;16.30;99.90
22153;DHT22;11242;50.536;12.688;2023-07-31T07:41:46;16.50;99.90
22153;DHT22;11242;50.536;12.688;2023-07-31T07:44:13;16.60;99.90
22153;DHT22;11242;50.536;12.688;2023-07-31T07:46:39;16.80;99.90
22153;DHT22;11242;50.536;12.688;2023-07-31T07:49:05;17.00;99.90
22153;DHT22;11242;50.536;12.688;2023-07-31T07:51:30;17.10;99.90
22153;DHT22;11242;50.536;12.688;2023-07-31T07:53:57;17.10;99.90
22153;DHT22;11242;50.536;12.688;2023-07-31T07:56:23;17.00;99.90
22153;DHT22;11242;50.536;12.688;2023-07-31T07:58:50;16.90;99.90
22153;DHT22;11242;50.536;12.688;2023-07-31T08:01:16;16.90;99.90
22153;DHT22;11242;50.536;12.688;2023-07-31T08:03:41;17.00;99.90
22153;DHT22;11242;50.536;12.688;2023-07-31T08:06:07;17.20;99.90
22153;DHT22;11242;50.536;12.688;2023-07-31T08:08:35;17.30;99.90
22153;DHT22;11242;50.536;12.688;2023-07-31T08:11:00;17.50;99.90
22153;DHT22;11242;50.536;12.688;2023-07-31T08:13:26;17.60;99.90
22153;DHT22;11242;50.536;12.688;2023-07-31T08:15:52;17.70;99.90
22153;DHT22;11242;50.536;12.688;2023-07-31T08:18:17;17.70;99.90
22153;DHT22;11242;50.536;12.688;2023-07-31T08:20:44;17.60;99.90
22153;DHT22;11242;50.536;12.688;2023-07-31T08:23:10;17.70;99.90
22153;DHT22;11242;50.536;12.688;2023-07-31T08:25:36;17.70;99.90
22153;DHT22;11242;50.536;12.688;2023-07-31T08:28:02;17.50;99.90
22153;DHT22;11242;50.536;12.688;2023-07-31T08:30:28;17.70;99.90
22153;DHT22;11242;50.536;12.688;2023-07-31T08:32:54;17.80;99.90
22153;DHT22;11242;50.536;12.688;2023-07-31T08:35:19;17.80;99.90
22153;DHT22;11242;50.536;12.688;2023-07-31T08:37:45;17.90;99.90
22153;DHT22;11242;50.536;12.688;2023-07-31T08:40:11;17.80;99.90
22153;DHT22;11242;50.536;12.688;2023-07-31T08:42:48;17.50;99.90
22153;DHT22;11242;50.536;12.688;2023-07-31T08:45:15;17.50;99.90
22153;DHT22;11242;50.536;12.688;2023-07-31T08:47:46;17.40;99.90
22153;DHT22;11242;50.536;12.688;2023-07-31T08:50:13;17.50;99.90
22153;DHT22;11242;50.536;12.688;2023-07-31T08:52:39;17.50;99.90
22153;DHT22;11242;50.536;12.688;2023-07-31T08:55:06;17.50;99.90
22153;DHT22;11242;50.536;12.688;2023-07-31T08:57:34;17.60;99.90
22153;DHT22;11242;50.536;12.688;2023-07-31T09:00:00;17.60;99.90
22153;DHT22;11242;50.536;12.688;2023-07-31T09:02:34;17.60;99.90
22153;DHT22;11242;50.536;12.688;2023-07-31T09:05:01;17.50;99.90
22153;DHT22;11242;50.536;12.688;2023-07-31T09:07:29;17.60;99.90
22153;DHT22;11242;50.536;12.688;2023-07-31T09:09:54;17.80;99.90
22153;DHT22;11242;50.536;12.688;2023-07-31T09:12:20;18.20;99.90
22153;DHT22;11242;50.536;12.688;2023-07-31T09:14:46;18.40;99.90
22153;DHT22;11242;50.536;12.688;2023-07-31T09:17:12;18.70;99.90
22153;DHT22;11242;50.536;12.688;2023-07-31T09:19:38;18.70;99.90
22153;DHT22;11242;50.536;12.688;2023-07-31T09:22:07;18.70;99.90
22153;DHT22;11242;50.536;12.688;2023-07-31T09:24:34;18.70;99.90
22153;DHT22;11242;50.536;12.688;2023-07-31T09:27:01;18.80;99.90
22153;DHT22;11242;50.536;12.688;2023-07-31T09:29:28;18.80;99.90
22153;DHT22;11242;50.536;12.688;2023-07-31T09:31:55;18.90;99.90
22153;DHT22;11242;50.536;12.688;2023-07-31T09:34:29;19.30;99.90
22153;DHT22;11242;50.536;12.688;2023-07-31T09:36:55;19.70;99.90
22153;DHT22;11242;50.536;12.688;2023-07-31T09:39:20;20.00;99.90
22153;DHT22;11242;50.536;12.688;2023-07-31T09:41:55;20.50;99.90
22153;DHT22;11242;50.536;12.688;2023-07-31T09:44:21;20.60;99.90
22153;DHT22;11242;50.536;12.688;2023-07-31T09:46:47;21.30;99.90
22153;DHT22;11242;50.536;12.688;2023-07-31T09:49:14;22.00;99.90
22153;DHT22;11242;50.536;12.688;2023-07-31T09:51:42;21.70;99.90
22153;DHT22;11242;50.536;12.688;2023-07-31T09:54:15;22.10;99.90
22153;DHT22;11242;50.536;12.688;2023-07-31T09:56:45;21.80;99.90
22153;DHT22;11242;50.536;12.688;2023-07-31T09:59:18;21.70;99.90
22153;DHT22;11242;50.536;12.688;2023-07-31T10:01:46;21.50;99.90
22153;DHT22;11242;50.536;12.688;2023-07-31T10:04:13;21.80;99.90
22153;DHT22;11242;50.536;12.688;2023-07-31T10:06:40;21.50;99.90
22153;DHT22;11242;50.536;12.688;2023-07-31T10:09:08;20.80;99.90
22153;DHT22;11242;50.536;12.688;2023-07-31T10:11:47;20.60;99.90
22153;DHT22;11242;50.536;12.688;2023-07-31T10:14:19;20.90;99.90
22153;DHT22;11242;50.536;12.688;2023-07-31T10:16:45;21.10;99.90
22153;DHT22;11242;50.536;12.688;2023-07-31T10:19:11;21.20;99.90
22153;DHT22;11242;50.536;12.688;2023-07-31T10:21:37;21.10;99.90
22153;DHT22;11242;50.536;12.688;2023-07-31T10:24:04;20.60;99.90
22153;DHT22;11242;50.536;12.688;2023-07-31T10:26:31;20.60;99.90
22153;DHT22;11242;50.536;12.688;2023-07-31T10:28:58;20.40;99.90
22153;DHT22;11242;50.536;12.688;2023-07-31T10:31:24;20.50;99.90
22153;DHT22;11242;50.536;12.688;2023-07-31T10:33:52;20.70;99.90
22153;DHT22;11242;50.536;12.688;2023-07-31T10:36:19;21.20;99.90
22153;DHT22;11242;50.536;12.688;2023-07-31T10:38:46;21.50;99.90
22153;DHT22;11242;50.536;12.688;2023-07-31T10:41:14;21.20;99.90
22153;DHT22;11242;50.536;12.688;2023-07-31T10:43:40;21.20;99.90
22153;DHT22;11242;50.536;12.688;2023-07-31T10:46:13;21.30;99.90
22153;DHT22;11242;50.536;12.688;2023-07-31T10:48:40;21.10;99.90
22153;DHT22;11242;50.536;12.688;2023-07-31T10:51:13;20.90;99.90
22153;DHT22;11242;50.536;12.688;2023-07-31T10:53:40;21.50;99.90
22153;DHT22;11242;50.536;12.688;2023-07-31T10:56:07;21.80;99.90
22153;DHT22;11242;50.536;12.688;2023-07-31T10:58:33;21.80;99.90
22153;DHT22;11242;50.536;12.688;2023-07-31T11:01:02;21.70;99.90
22153;DHT22;11242;50.536;12.688;2023-07-31T11:03:42;21.80;99.90
22153;DHT22;11242;50.536;12.688;2023-07-31T11:06:08;22.20;99.90
22153;DHT22;11242;50.536;12.688;2023-07-31T11:08:35;22.30;99.90
22153;DHT22;11242;50.536;12.688;2023-07-31T11:13:27;22.50;99.90
22153;DHT22;11242;50.536;12.688;2023-07-31T11:15:53;22.10;99.90
22153;DHT22;11242;50.536;12.688;2023-07-31T11:18:19;21.90;99.90
22153;DHT22;11242;50.536;12.688;2023-07-31T11:20:44;21.90;99.90
22153;DHT22;11242;50.536;12.688;2023-07-31T11:23:11;22.10;99.90
22153;DHT22;11242;50.536;12.688;2023-07-31T11:25:38;22.50;99.90
22153;DHT22;11242;50.536;12.688;2023-07-31T11:28:09;22.40;99.90
22153;DHT22;11242;50.536;12.688;2023-07-31T11:30:35;22.20;99.90
22153;DHT22;11242;50.536;12.688;2023-07-31T11:33:03;22.20;99.90
22153;DHT22;11242;50.536;12.688;2023-07-31T11:35:32;22.30;99.90
22153;DHT22;11242;50.536;12.688;2023-07-31T11:37:59;22.00;99.90
22153;DHT22;11242;50.536;12.688;2023-07-31T11:40:24;22.10;99.90
22153;DHT22;11242;50.536;12.688;2023-07-31T11:42:56;22.80;99.90
22153;DHT22;11242;50.536;12.688;2023-07-31T11:45:27;22.90;99.90
22153;DHT22;11242;50.536;12.688;2023-07-31T11:47:55;23.00;99.90
22153;DHT22;11242;50.536;12.688;2023-07-31T11:50:21;22.80;99.90
22153;DHT22;11242;50.536;12.688;2023-07-31T11:52:49;23.20;99.90
22153;DHT22;11242;50.536;12.688;2023-07-31T11:55:16;22.80;99.90
22153;DHT22;11242;50.536;12.688;2023-07-31T11:57:43;23.40;99.90
22153;DHT22;11242;50.536;12.688;2023-07-31T12:00:12;24.10;99.90
22153;DHT22;11242;50.536;12.688;2023-07-31T12:02:39;24.70;99.90
22153;DHT22;11242;50.536;12.688;2023-07-31T12:05:10;24.60;99.90
22153;DHT22;11242;50.536;12.688;2023-07-31T12:07:52;24.50;99.90
22153;DHT22;11242;50.536;12.688;2023-07-31T12:10:31;24.00;99.90
22153;DHT22;11242;50.536;12.688;2023-07-31T12:15:44;23.20;99.90
22153;DHT22;11242;50.536;12.688;2023-07-31T12:20:48;22.40;99.90
22153;DHT22;11242;50.536;12.688;2023-07-31T12:23:17;21.70;99.90
22153;DHT22;11242;50.536;12.688;2023-07-31T12:25:43;21.60;99.90
22153;DHT22;11242;50.536;12.688;2023-07-31T12:28:09;21.20;99.90
22153;DHT22;11242;50.536;12.688;2023-07-31T12:30:39;21.10;99.90
22153;DHT22;11242;50.536;12.688;2023-07-31T12:33:13;21.00;99.90
22153;DHT22;11242;50.536;12.688;2023-07-31T12:35:45;20.90;99.90
22153;DHT22;11242;50.536;12.688;2023-07-31T12:38:12;21.20;99.90
22153;DHT22;11242;50.536;12.688;2023-07-31T12:40:39;21.70;99.90
22153;DHT22;11242;50.536;12.688;2023-07-31T12:43:05;22.00;99.90
22153;DHT22;11242;50.536;12.688;2023-07-31T12:45:32;22.70;99.90
22153;DHT22;11242;50.536;12.688;2023-07-31T12:47:58;23.20;99.90
22153;DHT22;11242;50.536;12.688;2023-07-31T12:50:24;22.80;99.90
22153;DHT22;11242;50.536;12.688;2023-07-31T12:52:51;23.20;99.90
22153;DHT22;11242;50.536;12.688;2023-07-31T12:55:17;23.10;99.90
22153;DHT22;11242;50.536;12.688;2023-07-31T12:57:44;23.00;99.90
22153;DHT22;11242;50.536;12.688;2023-07-31T13:00:10;22.70;99.90
22153;DHT22;11242;50.536;12.688;2023-07-31T13:02:36;22.20;99.90
22153;DHT22;11242;50.536;12.688;2023-07-31T13:05:02;22.10;99.90
22153;DHT22;11242;50.536;12.688;2023-07-31T13:07:28;22.30;99.90
22153;DHT22;11242;50.536;12.688;2023-07-31T13:09:53;22.20;99.90
22153;DHT22;11242;50.536;12.688;2023-07-31T13:12:19;21.60;99.90
22153;DHT22;11242;50.536;12.688;2023-07-31T13:14:44;21.70;99.90
22153;DHT22;11242;50.536;12.688;2023-07-31T13:17:10;21.50;99.90
22153;DHT22;11242;50.536;12.688;2023-07-31T13:19:35;21.40;99.90
22153;DHT22;11242;50.536;12.688;2023-07-31T13:22:01;21.50;99.90
22153;DHT22;11242;50.536;12.688;2023-07-31T13:24:27;21.90;99.90
22153;DHT22;11242;50.536;12.688;2023-07-31T13:26:52;21.80;99.90
22153;DHT22;11242;50.536;12.688;2023-07-31T13:29:18;21.80;99.90
22153;DHT22;11242;50.536;12.688;2023-07-31T13:31:43;21.90;99.90
22153;DHT22;11242;50.536;12.688;2023-07-31T13:34:09;22.00;99.90
22153;DHT22;11242;50.536;12.688;2023-07-31T13:36:35;22.10;99.90
22153;DHT22;11242;50.536;12.688;2023-07-31T13:39:02;22.30;99.90
22153;DHT22;11242;50.536;12.688;2023-07-31T13:41:28;22.20;99.90
22153;DHT22;11242;50.536;12.688;2023-07-31T13:43:53;22.30;99.90
22153;DHT22;11242;50.536;12.688;2023-07-31T13:46:19;22.30;99.90
22153;DHT22;11242;50.536;12.688;2023-07-31T13:48:45;22.20;99.90
22153;DHT22;11242;50.536;12.688;2023-07-31T13:51:10;21.90;99.90
22153;DHT22;11242;50.536;12.688;2023-07-31T13:53:36;21.60;99.90
22153;DHT22;11242;50.536;12.688;2023-07-31T13:56:01;21.50;99.90
22153;DHT22;11242;50.536;12.688;2023-07-31T13:58:27;21.50;99.90
22153;DHT22;11242;50.536;12.688;2023-07-31T14:00:53;21.80;99.90
22153;DHT22;11242;50.536;12.688;2023-07-31T14:03:18;22.10;99.90
22153;DHT22;11242;50.536;12.688;2023-07-31T14:05:44;22.40;99.90
22153;DHT22;11242;50.536;12.688;2023-07-31T14:08:09;22.20;99.90
22153;DHT22;11242;50.536;12.688;2023-07-31T14:10:35;22.10;99.90
22153;DHT22;11242;50.536;12.688;2023-07-31T14:13:00;22.10;99.90
22153;DHT22;11242;50.536;12.688;2023-07-31T14:15:26;22.30;99.90
22153;DHT22;11242;50.536;12.688;2023-07-31T14:17:52;22.20;99.90
22153;DHT22;11242;50.536;12.688;2023-07-31T14:20:17;22.30;99.90
22153;DHT22;11242;50.536;12.688;2023-07-31T14:22:43;22.30;99.90
22153;DHT22;11242;50.536;12.688;2023-07-31T14:25:08;22.60;99.90
22153;DHT22;11242;50.536;12.688;2023-07-31T14:27:36;22.90;99.90
22153;DHT22;11242;50.536;12.688;2023-07-31T14:30:02;22.60;99.90
22153;DHT22;11242;50.536;12.688;2023-07-31T14:32:28;22.30;99.90
22153;DHT22;11242;50.536;12.688;2023-07-31T14:34:53;22.00;99.90
22153;DHT22;11242;50.536;12.688;2023-07-31T14:37:20;21.80;99.90
22153;DHT22;11242;50.536;12.688;2023-07-31T14:39:45;21.90;99.90
22153;DHT22;11242;50.536;12.688;2023-07-31T14:42:11;22.00;99.90
22153;DHT22;11242;50.536;12.688;2023-07-31T14:44:37;22.40;99.90
22153;DHT22;11242;50.536;12.688;2023-07-31T14:47:02;22.40;99.90
22153;DHT22;11242;50.536;12.688;2023-07-31T14:49:28;22.50;99.90
22153;DHT22;11242;50.536;12.688;2023-07-31T14:51:54;22.00;99.90
22153;DHT22;11242;50.536;12.688;2023-07-31T14:54:19;21.90;99.90
22153;DHT22;11242;50.536;12.688;2023-07-31T14:56:45;21.80;99.90
22153;DHT22;11242;50.536;12.688;2023-07-31T14:59:11;21.60;99.90
22153;DHT22;11242;50.536;12.688;2023-07-31T15:01:37;21.30;99.90
22153;DHT22;11242;50.536;12.688;2023-07-31T15:04:03;21.10;99.90
22153;DHT22;11242;50.536;12.688;2023-07-31T15:06:28;20.80;99.90
22153;DHT22;11242;50.536;12.688;2023-07-31T15:08:54;20.70;99.90
22153;DHT22;11242;50.536;12.688;2023-07-31T15:11:19;20.90;99.90
22153;DHT22;11242;50.536;12.688;2023-07-31T15:13:45;20.80;99.90
22153;DHT22;11242;50.536;12.688;2023-07-31T15:16:11;20.80;99.90
22153;DHT22;11242;50.536;12.688;2023-07-31T15:18:36;20.70;99.90
22153;DHT22;11242;50.536;12.688;2023-07-31T15:21:02;20.70;99.90
22153;DHT22;11242;50.536;12.688;2023-07-31T15:23:28;20.60;99.90
22153;DHT22;11242;50.536;12.688;2023-07-31T15:25:53;20.40;99.90